createdAt,value
2024-03-11T00:00:06.635Z,30.35
2024-03-11T00:02:33.366Z,28.65
2024-03-11T00:05:00.160Z,29.17
2024-03-11T00:07:31.499Z,30.10
2024-03-11T00:09:58.100Z,31.00
2024-03-11T00:12:24.783Z,31.45
2024-03-11T00:14:52.868Z,31.52
2024-03-11T00:17:22.944Z,32.72
2024-03-11T00:19:50.672Z,32.08
2024-03-11T00:22:17.504Z,30.73
2024-03-11T00:24:44.458Z,32.35
2024-03-11T00:27:11.190Z,31.98
2024-03-11T00:29:38.201Z,31.60
2024-03-11T00:32:06.755Z,31.75
2024-03-11T00:34:34.080Z,31.85
2024-03-11T00:37:01.167Z,31.20
2024-03-11T00:39:28.582Z,30.65
2024-03-11T00:41:55.369Z,31.80
2024-03-11T00:44:22.555Z,32.80
2024-03-11T00:46:52.459Z,30.63
2024-03-11T00:49:20.895Z,31.27
2024-03-11T00:51:47.688Z,30.17
2024-03-11T00:54:14.409Z,29.92
2024-03-11T00:56:41.372Z,31.88
2024-03-11T00:59:08.159Z,31.45
2024-03-11T01:01:34.924Z,30.75
2024-03-11T01:04:01.712Z,29.70
2024-03-11T01:06:28.680Z,30.83
2024-03-11T01:08:58.642Z,31.67
2024-03-11T01:11:26.196Z,30.13
2024-03-11T01:13:52.991Z,29.92
2024-03-11T01:16:19.606Z,31.83
2024-03-11T01:18:46.516Z,32.10
2024-03-11T01:21:18.090Z,32.13
2024-03-11T01:23:46.361Z,31.77
2024-03-11T01:26:13.243Z,32.80
2024-03-11T01:28:40.065Z,32.70
2024-03-11T01:31:07.656Z,31.50
2024-03-11T01:33:34.321Z,31.65
2024-03-11T01:36:02.545Z,33.40
2024-03-11T01:38:29.348Z,33.67
2024-03-11T01:40:56.614Z,33.15
2024-03-11T01:43:23.495Z,32.60
2024-03-11T01:45:50.595Z,30.88
2024-03-11T01:48:17.916Z,32.42
2024-03-11T01:50:44.948Z,33.22
2024-03-11T01:53:11.955Z,31.55
2024-03-11T01:55:39.096Z,31.50
2024-03-11T01:58:11.039Z,32.88
2024-03-11T02:00:38.540Z,33.17
2024-03-11T02:03:08.090Z,33.45
2024-03-11T02:05:41.652Z,32.58
2024-03-11T02:08:09.379Z,32.38
2024-03-11T02:10:37.607Z,33.40
2024-03-11T02:13:05.294Z,33.80
2024-03-11T02:15:34.005Z,32.67
2024-03-11T02:18:01.774Z,34.60
2024-03-11T02:20:29.546Z,32.58
2024-03-11T02:22:58.513Z,33.33
2024-03-11T02:25:29.928Z,33.22
2024-03-11T02:27:59.218Z,33.45
2024-03-11T02:30:26.205Z,34.25
2024-03-11T02:32:53.203Z,34.10
2024-03-11T02:35:20.271Z,35.50
2024-03-11T02:37:48.313Z,33.75
2024-03-11T02:40:19.611Z,35.00
2024-03-11T02:42:46.805Z,34.03
2024-03-11T02:45:16.613Z,34.58
2024-03-11T02:47:44.456Z,35.92
2024-03-11T02:50:12.254Z,35.20
2024-03-11T02:52:39.193Z,35.30
2024-03-11T02:55:07.312Z,37.20
2024-03-11T02:57:34.635Z,35.75
2024-03-11T03:00:01.993Z,35.95
2024-03-11T03:02:29.068Z,36.88
2024-03-11T03:04:57.158Z,36.50
2024-03-11T03:07:26.798Z,34.35
2024-03-11T03:09:54.178Z,37.17
2024-03-11T03:12:21.439Z,36.55
2024-03-11T03:14:48.325Z,37.92
2024-03-11T03:17:15.224Z,36.13
2024-03-11T03:19:42.089Z,35.20
2024-03-11T03:22:09.238Z,36.22
2024-03-11T03:24:35.960Z,36.05
2024-03-11T03:27:02.640Z,37.08
2024-03-11T03:29:31.576Z,36.67
2024-03-11T03:31:58.861Z,36.90
2024-03-11T03:34:25.500Z,37.25
2024-03-11T03:36:52.179Z,36.28
2024-03-11T03:39:18.840Z,37.45
2024-03-11T03:41:45.673Z,38.25
2024-03-11T03:44:12.656Z,38.25
2024-03-11T03:46:39.495Z,39.75
2024-03-11T03:49:06.146Z,38.10
2024-03-11T03:51:33.221Z,38.38
2024-03-11T03:54:00.263Z,40.05
2024-03-11T03:56:27.260Z,38.53
2024-03-11T03:58:54.450Z,38.65
2024-03-11T04:01:23.369Z,38.63
2024-03-11T04:03:50.229Z,37.40
2024-03-11T04:06:16.825Z,39.50
2024-03-11T04:08:43.638Z,40.17
2024-03-11T04:11:11.654Z,39.47
2024-03-11T04:13:41.011Z,39.55
2024-03-11T04:16:08.564Z,39.42
2024-03-11T04:18:35.579Z,39.47
2024-03-11T04:21:02.939Z,39.72
2024-03-11T04:23:30.186Z,40.05
2024-03-11T04:25:59.055Z,39.17
2024-03-11T04:28:29.711Z,40.50
2024-03-11T04:30:59.268Z,39.10
2024-03-11T04:33:25.947Z,38.83
2024-03-11T04:35:52.697Z,41.13
2024-03-11T04:38:19.789Z,41.72
2024-03-11T04:40:48.892Z,41.38
2024-03-11T04:43:15.657Z,41.38
2024-03-11T04:45:42.392Z,39.50
2024-03-11T04:48:11.140Z,40.97
2024-03-11T04:50:43.095Z,40.70
2024-03-11T04:53:10.954Z,42.63
2024-03-11T04:55:38.072Z,42.03
2024-03-11T04:58:05.379Z,41.08
2024-03-11T05:00:32.476Z,39.80
2024-03-11T05:03:01.454Z,40.65
2024-03-11T05:05:38.717Z,40.70
2024-03-11T05:08:07.141Z,41.17
2024-03-11T05:10:34.275Z,41.95
2024-03-11T05:13:00.912Z,40.25
2024-03-11T05:15:27.985Z,42.05
2024-03-11T05:17:55.463Z,42.08
2024-03-11T05:20:22.555Z,42.67
2024-03-11T05:22:49.876Z,42.65
2024-03-11T05:25:17.081Z,41.50
2024-03-11T05:27:46.371Z,41.22
2024-03-11T05:30:13.374Z,41.95
2024-03-11T05:32:41.830Z,41.13
2024-03-11T05:35:08.790Z,43.35
2024-03-11T05:37:35.501Z,42.45
2024-03-11T05:40:06.773Z,42.47
2024-03-11T05:42:34.407Z,43.58
2024-03-11T05:45:01.990Z,42.50
2024-03-11T05:47:28.677Z,43.83
2024-03-11T05:49:55.859Z,42.63
2024-03-11T05:52:26.160Z,44.42
2024-03-11T05:54:54.826Z,43.42
2024-03-11T05:57:31.050Z,43.35
2024-03-11T05:59:58.060Z,41.75
2024-03-11T06:02:24.947Z,43.50
2024-03-11T06:04:51.670Z,41.60
2024-03-11T06:07:26.894Z,41.13
2024-03-11T06:09:53.767Z,43.10
2024-03-11T06:12:23.878Z,43.25
2024-03-11T06:14:51.925Z,42.40
2024-03-11T06:17:18.683Z,43.72
2024-03-11T06:19:46.322Z,43.55
2024-03-11T06:22:16.418Z,42.38
2024-03-11T06:24:43.298Z,43.58
2024-03-11T06:27:09.941Z,41.13
2024-03-11T06:29:36.698Z,43.10
2024-03-11T06:32:07.305Z,43.13
2024-03-11T06:34:36.306Z,42.53
2024-03-11T06:37:03.682Z,41.83
2024-03-11T06:39:33.100Z,41.25
2024-03-11T06:42:01.575Z,41.47
2024-03-11T06:44:33.838Z,42.13
2024-03-11T06:47:09.518Z,41.78
2024-03-11T06:49:37.881Z,43.05
2024-03-11T06:52:08.196Z,41.78
2024-03-11T06:54:34.879Z,42.83
2024-03-11T06:57:02.062Z,41.33
2024-03-11T06:59:30.172Z,42.60
2024-03-11T07:01:58.056Z,43.05
2024-03-11T07:04:24.702Z,40.63
2024-03-11T07:06:51.771Z,42.97
2024-03-11T07:09:20.022Z,41.58
2024-03-11T07:11:46.765Z,41.53
2024-03-11T07:14:15.744Z,41.92
2024-03-11T07:16:44.245Z,42.13
2024-03-11T07:19:11.409Z,41.80
2024-03-11T07:21:38.489Z,42.22
2024-03-11T07:24:06.466Z,41.10
2024-03-11T07:26:33.477Z,40.22
2024-03-11T07:29:00.144Z,41.67
2024-03-11T07:31:26.876Z,40.53
2024-03-11T07:33:53.913Z,39.22
2024-03-11T07:36:20.587Z,42.05
2024-03-11T07:38:50.279Z,40.33
2024-03-11T07:41:17.234Z,40.60
2024-03-11T07:43:44.611Z,41.83
2024-03-11T07:46:12.638Z,40.90
2024-03-11T07:48:40.648Z,39.55
2024-03-11T07:51:09.342Z,39.78
2024-03-11T07:53:36.379Z,38.63
2024-03-11T07:56:05.328Z,40.92
2024-03-11T07:58:35.651Z,40.35
2024-03-11T08:01:03.182Z,40.63
2024-03-11T08:03:30.110Z,39.38
2024-03-11T08:05:57.476Z,39.67
2024-03-11T08:08:25.688Z,41.30
2024-03-11T08:10:52.536Z,40.42
2024-03-11T08:13:19.649Z,40.38
2024-03-11T08:15:46.631Z,39.92
2024-03-11T08:18:14.788Z,40.13
2024-03-11T08:20:41.937Z,40.15
2024-03-11T08:23:09.444Z,41.78
2024-03-11T08:25:36.768Z,41.70
2024-03-11T08:28:03.760Z,39.20
2024-03-11T08:30:32.242Z,41.05
2024-03-11T08:32:59.432Z,39.40
2024-03-11T08:35:26.590Z,40.97
2024-03-11T08:37:53.968Z,41.55
2024-03-11T08:40:23.072Z,41.88
2024-03-11T08:42:51.391Z,40.85
2024-03-11T08:45:23.808Z,38.25
2024-03-11T08:47:51.500Z,39.40
2024-03-11T08:50:18.384Z,39.08
2024-03-11T08:52:48.814Z,41.13
2024-03-11T08:55:17.591Z,40.72
2024-03-11T08:57:46.808Z,40.22
2024-03-11T09:00:17.502Z,40.40
2024-03-11T09:02:46.263Z,42.05
2024-03-11T09:05:14.417Z,41.22
2024-03-11T09:07:41.931Z,40.20
2024-03-11T09:10:10.514Z,40.65
2024-03-11T09:12:42.218Z,40.13
2024-03-11T09:15:20.586Z,39.00
2024-03-11T09:17:52.373Z,41.05
2024-03-11T09:20:21.866Z,40.90
2024-03-11T09:22:51.118Z,39.75
2024-03-11T09:25:26.283Z,41.00
2024-03-11T09:27:56.710Z,41.65
2024-03-11T09:30:23.721Z,39.25
2024-03-11T09:32:51.586Z,38.63
2024-03-11T09:35:19.112Z,40.35
2024-03-11T09:37:47.764Z,40.45
2024-03-11T09:40:18.297Z,39.85
2024-03-11T09:43:00.061Z,41.42
2024-03-11T09:45:36.247Z,39.67
2024-03-11T09:48:05.686Z,38.75
2024-03-11T09:50:35.076Z,39.20
2024-03-11T09:53:05.556Z,40.47
2024-03-11T09:55:33.661Z,38.65
2024-03-11T09:58:13.681Z,40.50
2024-03-11T10:00:53.797Z,38.08
2024-03-11T10:03:23.648Z,37.58
2024-03-11T10:06:05.944Z,38.80
2024-03-11T10:08:34.066Z,37.63
2024-03-11T10:11:19.399Z,37.58
2024-03-11T10:13:47.077Z,36.33
2024-03-11T10:16:19.941Z,36.03
2024-03-11T10:19:04.713Z,38.10
2024-03-11T10:21:35.741Z,35.35
2024-03-11T10:24:03.295Z,37.10
2024-03-11T10:26:50.921Z,37.00
2024-03-11T10:29:31.587Z,34.67
2024-03-11T10:31:58.246Z,36.60
2024-03-11T10:34:25.923Z,35.15
2024-03-11T10:37:03.145Z,35.83
2024-03-11T10:39:42.460Z,36.08
2024-03-11T10:42:10.644Z,36.55
2024-03-11T10:44:41.422Z,36.17
2024-03-11T10:47:23.647Z,35.67
2024-03-11T10:49:56.841Z,36.33
2024-03-11T10:52:25.786Z,34.78
2024-03-11T10:57:44.314Z,36.03
2024-03-11T11:00:19.572Z,33.75
2024-03-11T11:02:50.440Z,33.03
2024-03-11T11:05:20.010Z,33.80
2024-03-11T11:07:48.776Z,35.05
2024-03-11T11:10:19.139Z,34.58
2024-03-11T11:12:47.096Z,33.75
2024-03-11T11:15:15.487Z,33.78
2024-03-11T11:17:43.596Z,32.70
2024-03-11T11:20:31.469Z,31.58
2024-03-11T11:23:03.925Z,33.55
2024-03-11T11:25:41.537Z,31.83
2024-03-11T11:28:27.788Z,31.88
2024-03-11T11:31:16.243Z,32.97
2024-03-11T11:33:57.477Z,33.70
2024-03-11T11:36:33.715Z,32.83
2024-03-11T11:39:16.021Z,32.70
2024-03-11T11:41:46.287Z,31.15
2024-03-11T11:44:28.192Z,31.23
2024-03-11T11:47:11.085Z,29.42
2024-03-11T11:49:41.942Z,31.52
2024-03-11T11:52:12.059Z,30.27
2024-03-11T11:54:39.614Z,31.05
2024-03-11T11:57:15.689Z,31.70
2024-03-11T12:00:01.703Z,33.45
2024-03-11T12:02:34.734Z,37.25
2024-03-11T12:05:03.116Z,36.10
2024-03-11T12:07:30.203Z,38.10
2024-03-11T12:09:59.294Z,38.80
2024-03-11T12:12:35.111Z,41.47
2024-03-11T12:15:05.919Z,44.40
2024-03-11T12:17:34.072Z,42.15
2024-03-11T12:20:26.119Z,38.35
2024-03-11T12:22:55.924Z,43.67
2024-03-11T12:25:23.124Z,42.05
2024-03-11T12:28:02.731Z,40.63
2024-03-11T12:30:38.624Z,37.05
2024-03-11T12:33:07.207Z,40.47
2024-03-11T12:35:37.959Z,37.53
2024-03-11T12:38:06.547Z,37.53
2024-03-11T12:40:44.005Z,36.40
2024-03-11T12:43:22.095Z,36.58
2024-03-11T12:46:11.619Z,34.30
2024-03-11T12:48:39.185Z,35.33
2024-03-11T12:51:06.784Z,32.55
2024-03-11T12:53:34.551Z,31.48
2024-03-11T12:56:06.528Z,31.52
2024-03-11T12:58:39.023Z,28.65
2024-03-11T13:01:11.174Z,29.42
2024-03-11T13:03:41.302Z,29.20
2024-03-11T13:06:10.941Z,28.35
2024-03-11T13:08:42.327Z,27.83
2024-03-11T13:11:15.746Z,27.77
2024-03-11T13:13:43.486Z,28.63
2024-03-11T13:16:11.628Z,28.98
2024-03-11T13:18:41.492Z,28.25
2024-03-11T13:21:09.415Z,28.75
2024-03-11T13:23:39.158Z,28.45
2024-03-11T13:26:10.890Z,27.00
2024-03-11T13:28:37.766Z,27.58
2024-03-11T13:31:11.732Z,26.70
2024-03-11T13:33:42.627Z,28.17
2024-03-11T13:36:12.831Z,27.90
2024-03-11T13:38:39.784Z,27.65
2024-03-11T13:41:08.632Z,27.95
2024-03-11T13:43:40.712Z,27.02
2024-03-11T13:46:08.201Z,29.38
2024-03-11T13:48:34.908Z,27.83
2024-03-11T13:51:01.764Z,29.67
2024-03-11T13:53:29.756Z,27.15
2024-03-11T13:55:57.237Z,28.63
2024-03-11T13:58:25.633Z,29.13
2024-03-11T14:00:53.295Z,27.42
2024-03-11T14:03:20.991Z,29.60
2024-03-11T14:05:48.048Z,29.80
2024-03-11T14:08:15.054Z,28.70
2024-03-11T14:10:49.448Z,28.20
2024-03-11T14:13:18.994Z,28.83
2024-03-11T14:15:45.949Z,28.58
2024-03-11T14:18:13.013Z,28.15
2024-03-11T14:20:39.914Z,27.05
2024-03-11T14:23:07.873Z,27.02
2024-03-11T14:25:34.584Z,27.33
2024-03-11T14:28:01.320Z,27.73
2024-03-11T14:30:36.353Z,28.05
2024-03-11T14:33:08.446Z,27.33
2024-03-11T14:35:37.015Z,27.45
2024-03-11T14:38:03.866Z,26.60
2024-03-11T14:40:30.989Z,25.65
2024-03-11T14:42:59.057Z,26.98
2024-03-11T14:45:27.066Z,25.17
2024-03-11T14:47:54.627Z,26.63
2024-03-11T14:50:21.355Z,27.25
2024-03-11T14:52:48.278Z,27.42
2024-03-11T14:55:15.023Z,26.80
2024-03-11T14:57:43.480Z,26.67
2024-03-11T15:00:21.564Z,28.45
2024-03-11T15:02:50.906Z,27.90
2024-03-11T15:05:22.540Z,28.90
2024-03-11T15:07:58.049Z,28.90
2024-03-11T15:10:34.142Z,29.25
2024-03-11T15:13:05.020Z,28.27
2024-03-11T15:15:32.878Z,29.20
2024-03-11T15:18:03.081Z,28.95
2024-03-11T15:20:30.187Z,29.67
2024-03-11T15:22:56.907Z,29.55
2024-03-11T15:25:26.351Z,30.13
2024-03-11T15:27:54.429Z,31.20
2024-03-11T15:30:28.182Z,28.67
2024-03-11T15:32:55.950Z,28.33
2024-03-11T15:35:23.389Z,29.63
2024-03-11T15:37:50.007Z,30.35
2024-03-11T15:40:17.324Z,31.25
2024-03-11T15:42:45.373Z,28.05
2024-03-11T15:45:15.189Z,29.85
2024-03-11T15:47:42.775Z,30.25
2024-03-11T15:50:20.526Z,29.77
2024-03-11T15:52:50.720Z,29.95
2024-03-11T15:55:25.976Z,29.20
2024-03-11T15:57:59.609Z,30.23
2024-03-11T16:00:29.578Z,28.60
2024-03-11T16:02:59.940Z,29.63
2024-03-11T16:05:26.829Z,29.70
2024-03-11T16:07:54.525Z,31.83
2024-03-11T16:10:22.664Z,30.40
2024-03-11T16:12:55.399Z,30.48
2024-03-11T16:15:24.132Z,30.02
2024-03-11T16:17:52.975Z,30.80
2024-03-11T16:20:20.699Z,30.35
2024-03-11T16:22:47.998Z,30.27
2024-03-11T16:25:17.326Z,32.53
2024-03-11T16:27:45.595Z,30.00
2024-03-11T16:30:38.746Z,30.05
2024-03-11T16:33:05.751Z,29.77
2024-03-11T16:35:32.934Z,30.80
2024-03-11T16:38:00.673Z,29.42
2024-03-11T16:40:29.379Z,30.13
2024-03-11T16:43:10.528Z,29.50
2024-03-11T16:45:38.797Z,30.60
2024-03-11T16:48:07.574Z,32.42
2024-03-11T16:50:34.575Z,31.65
2024-03-11T16:53:10.831Z,32.53
2024-03-11T16:55:41.871Z,32.33
2024-03-11T16:58:10.815Z,31.13
2024-03-11T17:00:37.597Z,34.30
2024-03-11T17:03:04.446Z,31.48
2024-03-11T17:05:31.842Z,33.50
2024-03-11T17:07:58.858Z,31.13
2024-03-11T17:10:28.797Z,31.20
2024-03-11T17:13:01.429Z,32.33
2024-03-11T17:15:32.682Z,32.00
2024-03-11T17:18:02.924Z,32.42
2024-03-11T17:20:41.813Z,32.35
2024-03-11T17:23:11.600Z,32.53
2024-03-11T17:25:39.883Z,31.17
2024-03-11T17:28:11.860Z,32.72
2024-03-11T17:30:41.935Z,32.17
2024-03-11T17:33:09.844Z,33.35
2024-03-11T17:35:46.721Z,33.88
2024-03-11T17:38:15.125Z,33.08
2024-03-11T17:40:45.515Z,31.40
2024-03-11T17:43:14.804Z,33.30
2024-03-11T17:45:45.257Z,33.17
2024-03-11T17:48:17.080Z,33.10
2024-03-11T17:50:44.868Z,35.00
2024-03-11T17:53:14.959Z,34.00
2024-03-11T17:55:42.662Z,33.92
2024-03-11T17:58:12.230Z,32.38
2024-03-11T18:00:41.128Z,34.53
2024-03-11T18:03:10.976Z,33.53
2024-03-11T18:05:38.178Z,34.50
2024-03-11T18:08:07.689Z,33.05
2024-03-11T18:10:41.329Z,34.38
2024-03-11T18:13:12.559Z,33.85
2024-03-11T18:15:42.674Z,32.35
2024-03-11T18:18:11.644Z,34.58
2024-03-11T18:20:39.331Z,32.15
2024-03-11T18:23:06.945Z,33.10
2024-03-11T18:25:36.469Z,34.78
2024-03-11T18:28:03.442Z,35.53
2024-03-11T18:30:30.335Z,33.35
2024-03-11T18:32:58.397Z,33.50
2024-03-11T18:35:33.893Z,34.95
2024-03-11T18:38:00.649Z,32.13
2024-03-11T18:40:27.502Z,33.88
2024-03-11T18:42:55.441Z,33.63
2024-03-11T18:45:27.480Z,32.47
2024-03-11T18:47:55.655Z,32.75
2024-03-11T18:50:23.772Z,33.33
2024-03-11T18:52:58.756Z,34.00
2024-03-11T18:55:30.864Z,33.10
2024-03-11T18:57:58.981Z,33.83
2024-03-11T19:00:30.460Z,33.15
2024-03-11T19:02:58.337Z,33.42
2024-03-11T19:05:26.958Z,32.90
2024-03-11T19:07:54.822Z,33.63
2024-03-11T19:10:24.464Z,35.00
2024-03-11T19:12:53.671Z,35.83
2024-03-11T19:15:26.884Z,36.28
2024-03-11T19:17:54.579Z,34.55
2024-03-11T19:20:23.331Z,35.67
2024-03-11T19:22:54.982Z,36.47
2024-03-11T19:25:25.713Z,36.17
2024-03-11T19:27:54.276Z,34.97
2024-03-11T19:30:27.115Z,35.83
2024-03-11T19:32:54.754Z,38.13
2024-03-11T19:35:22.550Z,33.88
2024-03-11T19:38:16.798Z,34.95
2024-03-11T19:41:23.739Z,32.15
2024-03-11T19:44:16.339Z,31.50
2024-03-11T19:47:14.328Z,33.85
2024-03-11T19:50:19.422Z,33.55
2024-03-11T19:53:14.097Z,33.05
2024-03-11T19:56:21.506Z,32.97
2024-03-11T19:59:23.605Z,34.75
2024-03-11T20:02:32.781Z,35.13
2024-03-11T20:05:37.158Z,35.58
2024-03-11T20:08:27.945Z,34.65
2024-03-11T20:11:32.486Z,34.28
2024-03-11T20:14:02.564Z,35.00
2024-03-11T20:17:17.203Z,33.97
2024-03-11T20:20:09.743Z,35.10
2024-03-11T20:22:52.489Z,36.40
2024-03-11T20:25:40.772Z,38.72
2024-03-11T20:28:21.192Z,37.33
2024-03-11T20:31:15.754Z,37.33
2024-03-11T20:33:43.978Z,37.67
2024-03-11T20:36:15.163Z,37.00
2024-03-11T20:38:42.372Z,40.08
2024-03-11T20:41:11.879Z,39.20
2024-03-11T20:43:42.349Z,37.40
2024-03-11T20:46:12.537Z,38.00
2024-03-11T20:48:39.652Z,37.28
2024-03-11T20:51:06.400Z,40.45
2024-03-11T20:53:33.245Z,38.80
2024-03-11T20:56:04.041Z,42.22
2024-03-11T20:58:30.793Z,39.70
2024-03-11T21:00:59.610Z,41.88
2024-03-11T21:03:26.656Z,38.70
2024-03-11T21:05:53.507Z,41.45
2024-03-11T21:08:21.160Z,42.08
2024-03-11T21:10:49.327Z,39.88
2024-03-11T21:13:16.697Z,39.30
2024-03-11T21:15:43.810Z,40.47
2024-03-11T21:18:13.406Z,41.70
2024-03-11T21:20:40.770Z,39.90
2024-03-11T21:23:10.449Z,40.38
2024-03-11T21:25:52.208Z,38.75
2024-03-11T21:28:23.267Z,39.90
2024-03-11T21:30:54.167Z,40.05
2024-03-11T21:33:27.360Z,38.92
2024-03-11T21:35:55.007Z,39.92
2024-03-11T21:38:27.603Z,38.40
2024-03-11T21:40:57.457Z,39.03
2024-03-11T21:43:24.402Z,40.45
2024-03-11T21:45:51.986Z,40.97
2024-03-11T21:48:19.241Z,38.42
2024-03-11T21:50:46.624Z,40.58
2024-03-11T21:53:13.528Z,40.17
2024-03-11T21:55:43.183Z,39.13
2024-03-11T21:58:11.119Z,39.08
2024-03-11T22:00:39.753Z,41.88
2024-03-11T22:03:06.874Z,41.03
2024-03-11T22:05:33.595Z,40.65
2024-03-11T22:08:00.223Z,42.35
2024-03-11T22:10:26.916Z,43.10
2024-03-11T22:12:53.577Z,43.03
2024-03-11T22:15:20.500Z,43.92
2024-03-11T22:17:47.433Z,42.05
2024-03-11T22:20:14.281Z,41.10
2024-03-11T22:22:40.993Z,40.08
2024-03-11T22:25:10.728Z,42.58
2024-03-11T22:27:37.526Z,40.95
2024-03-11T22:30:04.473Z,40.78
2024-03-11T22:32:31.247Z,40.45
2024-03-11T22:34:58.288Z,39.25
2024-03-11T22:37:26.991Z,39.20
2024-03-11T22:39:54.374Z,41.72
2024-03-11T22:42:21.377Z,40.35
2024-03-11T22:44:49.654Z,40.88
2024-03-11T22:47:16.901Z,38.50
2024-03-11T22:49:44.231Z,40.90
2024-03-11T22:52:13.274Z,43.30
2024-03-11T22:54:40.058Z,42.38
2024-03-11T22:57:11.859Z,41.97
2024-03-11T22:59:42.348Z,44.80
2024-03-11T23:02:17.563Z,42.58
2024-03-11T23:04:50.011Z,42.42
2024-03-11T23:07:24.454Z,41.88
2024-03-11T23:09:51.362Z,40.25
2024-03-11T23:12:18.227Z,41.00
2024-03-11T23:14:44.866Z,42.13
2024-03-11T23:17:15.907Z,42.22
2024-03-11T23:19:45.453Z,41.95
2024-03-11T23:22:15.854Z,41.72
2024-03-11T23:24:42.602Z,42.92
2024-03-11T23:27:09.401Z,42.88
2024-03-11T23:29:36.264Z,43.03
2024-03-11T23:32:03.540Z,41.30
2024-03-11T23:34:30.144Z,41.17
2024-03-11T23:36:57.182Z,39.75
2024-03-11T23:39:24.986Z,41.70
2024-03-11T23:41:53.319Z,42.72
2024-03-11T23:44:20.036Z,42.45
2024-03-11T23:46:47.495Z,44.78
2024-03-11T23:49:15.994Z,43.13
2024-03-11T23:51:46.306Z,44.20
2024-03-11T23:54:13.708Z,43.08
2024-03-11T23:56:44.047Z,42.10
2024-03-11T23:59:12.935Z,41.58
